createdAt,value
2022-10-07T00:00:53.879Z,24.15
2022-10-07T00:01:56.576Z,24.05
2022-10-07T00:02:58.304Z,24.09
2022-10-07T00:04:00.005Z,24.38
2022-10-07T00:05:01.702Z,24.14
2022-10-07T00:06:13.384Z,24.36
2022-10-07T00:07:15.159Z,24.22
2022-10-07T00:08:16.900Z,24.26
2022-10-07T00:09:18.582Z,24.29
2022-10-07T00:10:20.268Z,23.61
2022-10-07T00:11:25.109Z,24.30
2022-10-07T00:12:27.134Z,23.88
2022-10-07T00:13:28.842Z,24.20
2022-10-07T00:14:30.546Z,24.06
2022-10-07T00:15:32.278Z,24.08
2022-10-07T00:16:37.176Z,24.08
2022-10-07T00:17:39.139Z,23.91
2022-10-07T00:18:41.878Z,24.34
2022-10-07T00:19:43.567Z,24.27
2022-10-07T00:20:45.324Z,24.21
2022-10-07T00:21:47.287Z,23.53
2022-10-07T00:22:49.044Z,24.15
2022-10-07T00:23:51.325Z,23.63
2022-10-07T00:24:53.082Z,24.06
2022-10-07T00:25:54.775Z,24.08
2022-10-07T00:26:56.499Z,24.14
2022-10-07T00:27:59.180Z,23.42
2022-10-07T00:29:01.751Z,23.95
2022-10-07T00:30:03.746Z,23.88
2022-10-07T00:31:09.021Z,24.28
2022-10-07T00:32:10.980Z,23.97
2022-10-07T00:33:12.662Z,23.53
2022-10-07T00:34:14.576Z,23.47
2022-10-07T00:35:19.248Z,24.03
2022-10-07T00:36:26.150Z,23.41
2022-10-07T00:37:28.540Z,23.78
2022-10-07T00:38:30.271Z,24.02
2022-10-07T00:39:32.019Z,23.73
2022-10-07T00:40:35.024Z,24.27
2022-10-07T00:41:39.966Z,24.15
2022-10-07T00:42:42.922Z,24.16
2022-10-07T00:43:44.820Z,23.35
2022-10-07T00:44:48.612Z,24.05
2022-10-07T00:45:51.431Z,23.68
2022-10-07T00:46:55.401Z,24.02
2022-10-07T00:47:57.174Z,24.08
2022-10-07T00:49:03.113Z,24.22
2022-10-07T00:50:10.906Z,24.23
2022-10-07T00:51:17.201Z,24.10
2022-10-07T00:52:21.824Z,24.24
2022-10-07T00:53:27.902Z,23.85
2022-10-07T00:54:29.815Z,24.23
2022-10-07T00:55:32.484Z,24.03
2022-10-07T00:56:35.101Z,23.77
2022-10-07T00:57:37.723Z,23.98
2022-10-07T00:58:42.261Z,24.15
2022-10-07T00:59:44.112Z,24.08
2022-10-07T01:00:46.625Z,24.19
2022-10-07T01:01:48.340Z,23.29
2022-10-07T01:02:50.704Z,23.99
2022-10-07T01:03:53.533Z,24.18
2022-10-07T01:04:59.074Z,23.95
2022-10-07T01:06:00.928Z,24.18
2022-10-07T01:07:02.861Z,24.17
2022-10-07T01:08:04.917Z,23.92
2022-10-07T01:09:08.862Z,24.03
2022-10-07T01:10:12.086Z,23.86
2022-10-07T01:11:39.420Z,23.99
2022-10-07T01:12:57.477Z,24.23
2022-10-07T01:14:29.574Z,24.26
2022-10-07T01:16:23.858Z,24.34
2022-10-07T01:17:32.910Z,24.32
2022-10-07T01:18:43.626Z,24.27
2022-10-07T01:20:27.081Z,24.32
2022-10-07T01:21:31.560Z,24.28
2022-10-07T01:22:57.969Z,24.20
2022-10-07T01:24:38.859Z,24.28
2022-10-07T01:25:49.617Z,24.26
2022-10-07T01:26:57.891Z,24.23
2022-10-07T01:28:09.684Z,23.85
2022-10-07T01:29:13.192Z,24.18
2022-10-07T01:30:15.281Z,23.82
2022-10-07T01:31:22.950Z,24.02
2022-10-07T01:32:36.861Z,23.83
2022-10-07T01:33:41.651Z,23.54
2022-10-07T01:34:46.628Z,23.28
2022-10-07T01:35:51.919Z,23.69
2022-10-07T01:36:58.288Z,23.77
2022-10-07T01:38:05.986Z,23.86
2022-10-07T01:39:14.268Z,24.09
2022-10-07T01:40:21.763Z,23.62
2022-10-07T01:41:24.366Z,23.80
2022-10-07T01:42:28.095Z,23.27
2022-10-07T01:43:32.217Z,23.95
2022-10-07T01:44:34.664Z,23.72
2022-10-07T01:45:41.414Z,23.75
2022-10-07T01:46:43.578Z,23.13
2022-10-07T01:47:46.159Z,24.01
2022-10-07T01:48:48.322Z,23.85
2022-10-07T01:49:51.536Z,23.82
2022-10-07T01:50:54.253Z,23.76
2022-10-07T01:52:14.141Z,23.75
2022-10-07T01:53:22.580Z,23.80
2022-10-07T01:54:44.452Z,23.93
2022-10-07T01:56:24.421Z,24.14
2022-10-07T01:57:52.928Z,24.00
2022-10-07T01:59:12.047Z,24.16
2022-10-07T02:00:15.285Z,24.13
2022-10-07T02:01:22.949Z,24.09
2022-10-07T02:02:48.078Z,24.04
2022-10-07T02:03:50.713Z,24.09
2022-10-07T02:05:09.070Z,23.89
2022-10-07T02:06:15.708Z,24.00
2022-10-07T02:07:21.086Z,24.06
2022-10-07T02:08:30.586Z,24.03
2022-10-07T02:09:46.004Z,23.48
2022-10-07T02:11:14.047Z,23.90
2022-10-07T02:12:25.704Z,24.08
2022-10-07T02:14:04.111Z,23.93
2022-10-07T02:15:16.896Z,23.39
2022-10-07T02:16:25.733Z,23.54
2022-10-07T02:17:34.242Z,23.81
2022-10-07T02:18:39.729Z,23.80
2022-10-07T02:19:46.281Z,23.49
2022-10-07T02:20:52.091Z,23.66
2022-10-07T02:21:58.383Z,23.80
2022-10-07T02:23:02.627Z,23.95
2022-10-07T02:24:05.492Z,23.95
2022-10-07T02:25:10.023Z,23.84
2022-10-07T02:26:15.528Z,23.92
2022-10-07T02:27:23.560Z,23.94
2022-10-07T02:28:28.855Z,23.16
2022-10-07T02:29:37.048Z,23.84
2022-10-07T02:30:40.407Z,23.71
2022-10-07T02:31:45.093Z,23.94
2022-10-07T02:32:57.049Z,23.71
2022-10-07T02:34:01.939Z,23.75
2022-10-07T02:35:13.301Z,23.80
2022-10-07T02:36:22.374Z,23.40
2022-10-07T02:37:29.915Z,22.97
2022-10-07T02:38:31.816Z,23.44
2022-10-07T02:39:34.177Z,23.03
2022-10-07T02:40:41.723Z,23.78
2022-10-07T02:41:50.367Z,23.94
2022-10-07T02:43:11.210Z,23.63
2022-10-07T02:44:34.203Z,23.97
2022-10-07T02:45:48.989Z,24.01
2022-10-07T02:46:56.866Z,23.99
2022-10-07T02:48:04.850Z,23.76
2022-10-07T02:49:09.803Z,22.96
2022-10-07T02:50:19.174Z,23.76
2022-10-07T02:51:23.865Z,23.72
2022-10-07T02:52:31.641Z,23.92
2022-10-07T02:53:36.496Z,23.10
2022-10-07T02:54:54.477Z,23.78
2022-10-07T02:55:58.260Z,23.94
2022-10-07T02:57:01.402Z,23.06
2022-10-07T02:58:08.758Z,23.13
2022-10-07T02:59:14.376Z,23.58
2022-10-07T03:00:18.986Z,23.80
2022-10-07T03:01:30.804Z,23.70
2022-10-07T03:02:44.800Z,23.93
2022-10-07T03:03:46.738Z,23.59
2022-10-07T03:04:48.847Z,23.62
2022-10-07T03:05:51.309Z,23.21
2022-10-07T03:06:54.423Z,23.65
2022-10-07T03:08:00.570Z,23.87
2022-10-07T03:09:03.210Z,23.78
2022-10-07T03:10:09.086Z,23.75
2022-10-07T03:11:12.257Z,23.71
2022-10-07T03:12:14.015Z,23.65
2022-10-07T03:13:15.795Z,23.02
2022-10-07T03:14:24.854Z,23.68
2022-10-07T03:15:27.551Z,23.73
2022-10-07T03:16:31.286Z,23.57
2022-10-07T03:17:33.056Z,23.46
2022-10-07T03:18:34.805Z,23.53
2022-10-07T03:19:44.017Z,22.99
2022-10-07T03:20:46.197Z,23.65
2022-10-07T03:21:48.077Z,23.72
2022-10-07T03:22:50.397Z,23.08
2022-10-07T03:23:55.639Z,23.42
2022-10-07T03:25:01.386Z,22.87
2022-10-07T03:26:03.129Z,23.54
2022-10-07T03:27:07.794Z,23.87
2022-10-07T03:28:10.682Z,23.65
2022-10-07T03:29:13.891Z,23.64
2022-10-07T03:30:16.100Z,23.72
2022-10-07T03:31:17.925Z,23.71
2022-10-07T03:32:27.372Z,23.87
2022-10-07T03:33:29.304Z,23.82
2022-10-07T03:34:32.183Z,23.76
2022-10-07T03:35:34.846Z,23.79
2022-10-07T03:36:37.027Z,23.86
2022-10-07T03:37:42.006Z,23.56
2022-10-07T03:38:45.010Z,23.65
2022-10-07T03:39:49.218Z,23.77
2022-10-07T03:40:52.243Z,23.66
2022-10-07T03:41:54.204Z,23.62
2022-10-07T03:42:55.952Z,23.54
2022-10-07T03:43:59.349Z,23.74
2022-10-07T03:45:02.400Z,23.52
2022-10-07T03:46:04.311Z,23.57
2022-10-07T03:47:10.732Z,23.83
2022-10-07T03:48:13.105Z,23.64
2022-10-07T03:49:15.335Z,23.58
2022-10-07T03:50:17.168Z,23.61
2022-10-07T03:51:19.078Z,23.57
2022-10-07T03:52:20.891Z,23.59
2022-10-07T03:53:22.970Z,23.46
2022-10-07T03:54:24.748Z,22.92
2022-10-07T03:55:26.484Z,23.66
2022-10-07T03:56:28.198Z,23.48
2022-10-07T03:57:48.397Z,23.66
2022-10-07T03:58:50.264Z,23.74
2022-10-07T03:59:53.719Z,23.82
2022-10-07T04:01:15.193Z,23.64
2022-10-07T04:02:27.952Z,23.68
2022-10-07T04:03:30.784Z,23.53
2022-10-07T04:04:32.735Z,23.59
2022-10-07T04:05:36.262Z,23.48
2022-10-07T04:06:38.966Z,23.80
2022-10-07T04:07:49.175Z,23.33
2022-10-07T04:08:55.331Z,23.54
2022-10-07T04:09:57.303Z,23.48
2022-10-07T04:11:02.131Z,23.64
2022-10-07T04:12:05.061Z,23.54
2022-10-07T04:13:06.832Z,22.91
2022-10-07T04:14:08.920Z,23.36
2022-10-07T04:15:14.079Z,22.89
2022-10-07T04:16:18.901Z,23.00
2022-10-07T04:17:23.698Z,23.52
2022-10-07T04:18:25.599Z,22.90
2022-10-07T04:19:28.679Z,23.36
2022-10-07T04:20:30.418Z,23.63
2022-10-07T04:21:32.521Z,23.54
2022-10-07T04:22:34.278Z,23.74
2022-10-07T04:23:36.608Z,23.74
2022-10-07T04:24:38.520Z,23.05
2022-10-07T04:25:47.221Z,23.00
2022-10-07T04:26:52.563Z,23.52
2022-10-07T04:27:56.416Z,23.75
2022-10-07T04:29:00.190Z,23.44
2022-10-07T04:30:03.860Z,23.59
2022-10-07T04:31:08.965Z,23.74
2022-10-07T04:32:14.560Z,23.50
2022-10-07T04:33:16.641Z,23.48
2022-10-07T04:34:18.366Z,23.54
2022-10-07T04:35:21.823Z,22.88
2022-10-07T04:36:25.418Z,23.59
2022-10-07T04:37:35.182Z,23.53
2022-10-07T04:38:36.925Z,23.60
2022-10-07T04:39:59.743Z,23.53
2022-10-07T04:41:05.751Z,23.77
2022-10-07T04:42:28.889Z,23.56
2022-10-07T04:43:33.972Z,23.31
2022-10-07T04:44:48.124Z,23.63
2022-10-07T04:45:53.761Z,23.56
2022-10-07T04:46:56.947Z,23.67
2022-10-07T04:48:02.608Z,23.74
2022-10-07T04:49:05.330Z,23.51
2022-10-07T04:50:07.981Z,23.57
2022-10-07T04:51:10.360Z,23.02
2022-10-07T04:52:14.071Z,23.39
2022-10-07T04:53:19.812Z,22.57
2022-10-07T04:54:21.968Z,23.12
2022-10-07T04:55:28.397Z,23.47
2022-10-07T04:56:31.449Z,22.72
2022-10-07T04:57:34.391Z,23.62
2022-10-07T04:58:36.410Z,23.49
2022-10-07T04:59:42.648Z,23.46
2022-10-07T05:00:49.261Z,23.70
2022-10-07T05:01:52.362Z,23.10
2022-10-07T05:02:54.231Z,23.69
2022-10-07T05:03:58.194Z,23.17
2022-10-07T05:05:01.091Z,23.33
2022-10-07T05:06:05.760Z,23.68
2022-10-07T05:07:10.555Z,22.85
2022-10-07T05:08:14.534Z,23.32
2022-10-07T05:09:16.569Z,23.70
2022-10-07T05:10:21.839Z,22.88
2022-10-07T05:11:23.898Z,22.89
2022-10-07T05:12:32.011Z,23.04
2022-10-07T05:13:34.502Z,23.49
2022-10-07T05:14:37.108Z,23.61
2022-10-07T05:15:57.887Z,23.22
2022-10-07T05:17:00.032Z,23.65
2022-10-07T05:18:07.212Z,23.64
2022-10-07T05:19:10.604Z,23.46
2022-10-07T05:20:13.609Z,23.65
2022-10-07T05:21:15.443Z,23.64
2022-10-07T05:22:20.281Z,23.74
2022-10-07T05:23:28.074Z,23.96
2022-10-07T05:24:33.123Z,23.49
2022-10-07T05:25:36.201Z,23.56
2022-10-07T05:26:38.077Z,23.69
2022-10-07T05:27:42.476Z,24.12
2022-10-07T05:28:45.755Z,23.78
2022-10-07T05:29:50.698Z,24.18
2022-10-07T05:31:01.628Z,23.86
2022-10-07T05:32:05.229Z,24.20
2022-10-07T05:33:10.033Z,24.05
2022-10-07T05:34:13.734Z,23.62
2022-10-07T05:35:15.676Z,24.34
2022-10-07T05:36:17.924Z,24.36
2022-10-07T05:37:19.737Z,24.09
2022-10-07T05:38:22.440Z,24.22
2022-10-07T05:39:24.179Z,24.25
2022-10-07T05:40:38.959Z,24.33
2022-10-07T05:41:45.618Z,24.34
2022-10-07T05:42:51.009Z,24.37
2022-10-07T05:43:52.945Z,24.13
2022-10-07T05:44:54.754Z,24.37
2022-10-07T05:46:05.376Z,24.63
2022-10-07T05:47:09.860Z,24.48
2022-10-07T05:48:11.777Z,23.80
2022-10-07T05:49:13.551Z,23.87
2022-10-07T05:50:16.621Z,24.07
2022-10-07T05:51:22.822Z,24.44
2022-10-07T05:52:25.092Z,24.62
2022-10-07T05:53:28.689Z,24.77
2022-10-07T05:54:32.999Z,24.62
2022-10-07T05:55:40.021Z,24.64
2022-10-07T05:56:41.910Z,24.44
2022-10-07T05:57:44.039Z,24.48
2022-10-07T05:58:47.706Z,24.50
2022-10-07T05:59:50.192Z,24.61
2022-10-07T06:00:54.881Z,24.87
2022-10-07T06:01:57.643Z,24.74
2022-10-07T06:03:02.405Z,24.70
2022-10-07T06:04:08.049Z,24.74
2022-10-07T06:05:14.655Z,24.38
2022-10-07T06:06:17.406Z,24.73
2022-10-07T06:07:22.026Z,24.78
2022-10-07T06:08:28.281Z,24.97
2022-10-07T06:09:51.688Z,24.49
2022-10-07T06:11:12.207Z,24.83
2022-10-07T06:12:32.735Z,24.92
2022-10-07T06:13:38.257Z,24.77
2022-10-07T06:14:40.309Z,24.71
2022-10-07T06:15:42.971Z,24.71
2022-10-07T06:16:45.127Z,24.77
2022-10-07T06:17:47.991Z,24.27
2022-10-07T06:18:55.061Z,25.00
2022-10-07T06:19:59.064Z,24.02
2022-10-07T06:21:02.139Z,24.79
2022-10-07T06:22:05.396Z,24.89
2022-10-07T06:23:09.398Z,24.75
2022-10-07T06:24:11.354Z,24.84
2022-10-07T06:25:13.311Z,24.78
2022-10-07T06:26:15.279Z,24.15
2022-10-07T06:27:17.373Z,24.78
2022-10-07T06:28:19.966Z,24.78
2022-10-07T06:29:22.483Z,24.61
2022-10-07T06:30:25.866Z,24.73
2022-10-07T06:31:28.929Z,24.84
2022-10-07T06:32:35.985Z,24.87
2022-10-07T06:33:38.449Z,24.65
2022-10-07T06:34:40.303Z,24.73
2022-10-07T06:35:42.107Z,24.80
2022-10-07T06:36:43.867Z,24.80
2022-10-07T06:37:45.857Z,24.80
2022-10-07T06:38:49.837Z,24.98
2022-10-07T06:39:58.681Z,24.53
2022-10-07T06:41:04.493Z,24.24
2022-10-07T06:42:08.286Z,24.19
2022-10-07T06:43:12.860Z,24.36
2022-10-07T06:44:20.164Z,24.91
2022-10-07T06:45:22.006Z,24.81
2022-10-07T06:46:25.864Z,24.53
2022-10-07T06:47:27.902Z,24.77
2022-10-07T06:48:32.990Z,24.46
2022-10-07T06:49:34.912Z,24.62
2022-10-07T06:50:36.727Z,24.82
2022-10-07T06:51:38.722Z,24.81
2022-10-07T06:52:43.433Z,24.79
2022-10-07T06:53:46.331Z,24.86
2022-10-07T06:54:48.251Z,24.90
2022-10-07T06:56:00.156Z,25.00
2022-10-07T06:57:20.385Z,24.68
2022-10-07T06:58:27.071Z,24.87
2022-10-07T06:59:30.109Z,24.60
2022-10-07T07:00:39.807Z,24.86
2022-10-07T07:01:41.883Z,24.73
2022-10-07T07:02:44.683Z,25.01
2022-10-07T07:03:46.932Z,24.76
2022-10-07T07:04:51.948Z,25.00
2022-10-07T07:05:56.539Z,24.81
2022-10-07T07:07:03.491Z,24.79
2022-10-07T07:08:05.830Z,24.86
2022-10-07T07:09:07.689Z,24.86
2022-10-07T07:10:12.536Z,24.76
2022-10-07T07:11:37.014Z,24.61
2022-10-07T07:12:47.843Z,24.59
2022-10-07T07:13:50.012Z,24.65
2022-10-07T07:14:52.536Z,24.94
2022-10-07T07:15:57.632Z,24.76
2022-10-07T07:17:00.773Z,24.01
2022-10-07T07:18:04.332Z,25.00
2022-10-07T07:19:08.863Z,24.99
2022-10-07T07:20:11.783Z,24.87
2022-10-07T07:21:13.755Z,24.66
2022-10-07T07:22:15.478Z,24.09
2022-10-07T07:23:18.217Z,24.15
2022-10-07T07:24:20.264Z,24.30
2022-10-07T07:25:22.850Z,23.99
2022-10-07T07:26:25.478Z,24.99
2022-10-07T07:27:27.514Z,24.84
2022-10-07T07:28:31.607Z,24.74
2022-10-07T07:29:33.684Z,24.79
2022-10-07T07:30:39.168Z,24.84
2022-10-07T07:31:41.332Z,24.20
2022-10-07T07:32:43.985Z,24.00
2022-10-07T07:33:52.278Z,24.25
2022-10-07T07:34:55.892Z,24.75
2022-10-07T07:35:57.842Z,24.81
2022-10-07T07:36:59.725Z,24.71
2022-10-07T07:38:08.608Z,24.67
2022-10-07T07:39:13.652Z,24.86
2022-10-07T07:40:17.735Z,24.94
2022-10-07T07:41:22.210Z,24.10
2022-10-07T07:42:24.611Z,24.46
2022-10-07T07:43:26.353Z,25.01
2022-10-07T07:44:34.002Z,24.17
2022-10-07T07:45:38.229Z,24.87
2022-10-07T07:46:47.750Z,25.01
2022-10-07T07:47:50.279Z,24.88
2022-10-07T07:48:54.237Z,24.85
2022-10-07T07:49:55.949Z,24.60
2022-10-07T07:51:06.731Z,24.99
2022-10-07T07:52:09.791Z,24.86
2022-10-07T07:53:16.392Z,24.17
2022-10-07T07:54:19.096Z,24.86
2022-10-07T07:55:23.761Z,25.04
2022-10-07T07:56:26.344Z,24.79
2022-10-07T07:57:29.877Z,25.02
2022-10-07T07:58:35.905Z,24.23
2022-10-07T07:59:37.762Z,25.04
2022-10-07T08:00:40.856Z,24.12
2022-10-07T08:01:45.420Z,24.70
2022-10-07T08:02:48.765Z,24.93
2022-10-07T08:03:53.547Z,25.05
2022-10-07T08:04:55.344Z,24.87
2022-10-07T08:06:02.166Z,24.63
2022-10-07T08:07:05.336Z,24.85
2022-10-07T08:08:07.326Z,24.68
2022-10-07T08:09:09.530Z,24.80
2022-10-07T08:10:12.743Z,24.91
2022-10-07T08:11:17.447Z,25.04
2022-10-07T08:12:22.273Z,24.77
2022-10-07T08:13:26.381Z,24.89
2022-10-07T08:14:28.225Z,24.85
2022-10-07T08:15:30.358Z,24.27
2022-10-07T08:16:32.666Z,24.47
2022-10-07T08:17:35.363Z,24.81
2022-10-07T08:18:39.074Z,24.67
2022-10-07T08:19:40.931Z,24.78
2022-10-07T08:20:43.744Z,24.52
2022-10-07T08:21:45.546Z,24.17
2022-10-07T08:22:55.665Z,24.26
2022-10-07T08:24:04.004Z,24.85
2022-10-07T08:25:08.905Z,24.99
2022-10-07T08:26:10.931Z,24.82
2022-10-07T08:27:13.385Z,24.74
2022-10-07T08:28:15.903Z,24.39
2022-10-07T08:29:19.528Z,25.09
2022-10-07T08:30:21.332Z,25.03
2022-10-07T08:31:28.345Z,24.80
2022-10-07T08:32:31.152Z,24.29
2022-10-07T08:33:35.954Z,25.09
2022-10-07T08:34:37.750Z,24.97
2022-10-07T08:35:40.059Z,24.81
2022-10-07T08:36:47.282Z,24.85
2022-10-07T08:37:49.413Z,24.98
2022-10-07T08:38:52.036Z,24.45
2022-10-07T08:39:53.743Z,24.88
2022-10-07T08:40:55.693Z,24.34
2022-10-07T08:42:08.620Z,24.33
2022-10-07T08:43:10.451Z,24.69
2022-10-07T08:44:16.396Z,25.14
2022-10-07T08:45:29.547Z,24.95
2022-10-07T08:46:35.519Z,24.96
2022-10-07T08:47:44.219Z,25.17
2022-10-07T08:48:53.948Z,25.17
2022-10-07T08:50:18.073Z,24.99
2022-10-07T08:51:30.877Z,24.52
2022-10-07T08:52:41.649Z,25.20
2022-10-07T08:53:44.668Z,24.83
2022-10-07T08:54:46.691Z,24.44
2022-10-07T08:56:01.515Z,24.96
2022-10-07T08:57:16.217Z,24.84
2022-10-07T08:58:43.511Z,25.23
2022-10-07T08:59:50.458Z,24.99
2022-10-07T09:01:01.401Z,25.20
2022-10-07T09:02:21.506Z,25.21
2022-10-07T09:03:52.386Z,25.26
2022-10-07T09:04:58.247Z,24.42
2022-10-07T09:06:08.599Z,24.50
2022-10-07T09:07:21.493Z,24.98
2022-10-07T09:08:36.441Z,25.07
2022-10-07T09:09:53.743Z,25.22
2022-10-07T09:11:02.473Z,25.03
2022-10-07T09:12:22.852Z,24.98
2022-10-07T09:13:27.102Z,24.45
2022-10-07T09:14:47.038Z,24.91
2022-10-07T09:16:00.759Z,25.21
2022-10-07T09:17:10.880Z,25.13
2022-10-07T09:18:31.968Z,25.23
2022-10-07T09:19:39.543Z,25.01
2022-10-07T09:20:45.781Z,25.19
2022-10-07T09:21:51.565Z,24.88
2022-10-07T09:22:57.438Z,24.89
2022-10-07T09:24:24.828Z,25.08
2022-10-07T09:25:29.673Z,25.07
2022-10-07T09:26:31.370Z,24.35
2022-10-07T09:27:33.591Z,24.38
2022-10-07T09:28:37.136Z,25.17
2022-10-07T09:29:39.108Z,24.96
2022-10-07T09:30:42.431Z,24.39
2022-10-07T09:31:44.249Z,24.35
2022-10-07T09:32:48.596Z,24.35
2022-10-07T09:33:53.129Z,24.67
2022-10-07T09:34:55.033Z,24.74
2022-10-07T09:36:08.345Z,24.33
2022-10-07T09:37:21.095Z,25.17
2022-10-07T09:38:41.052Z,25.23
2022-10-07T09:39:44.617Z,25.23
2022-10-07T09:41:30.364Z,24.91
2022-10-07T09:42:38.750Z,25.28
2022-10-07T09:43:50.891Z,25.04
2022-10-07T09:44:55.444Z,25.23
2022-10-07T09:45:58.822Z,25.22
2022-10-07T09:47:17.207Z,25.22
2022-10-07T09:48:22.046Z,25.22
2022-10-07T09:49:29.474Z,25.21
2022-10-07T09:50:39.671Z,24.95
2022-10-07T09:51:41.588Z,25.10
2022-10-07T09:52:55.675Z,25.16
2022-10-07T09:54:06.328Z,25.21
2022-10-07T09:55:26.926Z,25.25
2022-10-07T09:56:47.852Z,25.14
2022-10-07T09:58:00.860Z,25.17
2022-10-07T09:59:21.387Z,25.28
2022-10-07T10:00:26.532Z,25.25
2022-10-07T10:01:28.486Z,25.04
2022-10-07T10:02:31.102Z,24.91
2022-10-07T10:03:37.928Z,25.18
2022-10-07T10:04:53.304Z,25.20
2022-10-07T10:05:57.894Z,24.89
2022-10-07T10:07:06.380Z,24.78
2022-10-07T10:08:23.046Z,24.74
2022-10-07T10:09:26.108Z,25.23
2022-10-07T10:10:33.945Z,25.05
2022-10-07T10:11:35.782Z,25.00
2022-10-07T10:12:46.570Z,25.08
2022-10-07T10:13:50.736Z,25.20
2022-10-07T10:14:59.486Z,24.70
2022-10-07T10:16:03.426Z,24.97
2022-10-07T10:17:05.367Z,24.47
2022-10-07T10:18:22.461Z,25.21
2022-10-07T10:19:26.699Z,25.06
2022-10-07T10:20:36.755Z,25.21
2022-10-07T10:21:42.150Z,25.21
2022-10-07T10:22:44.211Z,25.21
2022-10-07T10:23:49.605Z,24.38
2022-10-07T10:25:10.517Z,24.69
2022-10-07T10:26:32.457Z,25.22
2022-10-07T10:27:59.929Z,25.01
2022-10-07T10:29:04.733Z,25.27
2022-10-07T10:30:12.633Z,25.01
2022-10-07T10:31:29.891Z,24.98
2022-10-07T10:32:32.248Z,25.26
2022-10-07T10:33:53.364Z,25.06
2022-10-07T10:35:19.787Z,25.06
2022-10-07T10:36:27.232Z,25.14
2022-10-07T10:37:41.234Z,25.30
2022-10-07T10:39:01.781Z,25.27
2022-10-07T10:40:33.144Z,25.16
2022-10-07T10:41:40.435Z,25.33
2022-10-07T10:42:51.304Z,25.30
2022-10-07T10:44:20.231Z,25.32
2022-10-07T10:45:49.278Z,25.32
2022-10-07T10:47:03.896Z,25.35
2022-10-07T10:48:23.832Z,25.31
2022-10-07T10:49:36.392Z,25.23
2022-10-07T10:50:55.772Z,24.92
2022-10-07T10:52:18.243Z,25.05
2022-10-07T10:53:34.472Z,25.31
2022-10-07T10:54:51.244Z,25.10
2022-10-07T10:56:21.060Z,25.32
2022-10-07T10:57:59.988Z,24.92
2022-10-07T10:59:17.188Z,25.26
2022-10-07T11:00:23.386Z,24.95
2022-10-07T11:01:34.572Z,25.31
2022-10-07T11:02:39.107Z,25.29
2022-10-07T11:04:04.717Z,25.30
2022-10-07T11:05:34.508Z,25.39
2022-10-07T11:06:38.332Z,25.19
2022-10-07T11:07:46.306Z,24.98
2022-10-07T11:08:52.122Z,24.40
2022-10-07T11:10:16.855Z,25.33
2022-10-07T11:11:22.140Z,25.31
2022-10-07T11:12:26.759Z,25.29
2022-10-07T11:13:46.972Z,25.11
2022-10-07T11:14:57.827Z,25.25
2022-10-07T11:16:25.974Z,25.14
2022-10-07T11:17:32.304Z,25.23
2022-10-07T11:18:49.447Z,25.33
2022-10-07T11:20:04.468Z,24.93
2022-10-07T11:21:12.720Z,25.15
2022-10-07T11:22:23.894Z,24.81
2022-10-07T11:23:32.796Z,25.16
2022-10-07T11:24:37.820Z,24.52
2022-10-07T11:26:01.940Z,24.89
2022-10-07T11:27:15.036Z,24.64
2022-10-07T11:28:24.495Z,25.00
2022-10-07T11:29:31.555Z,25.32
2022-10-07T11:30:43.562Z,25.22
2022-10-07T11:31:54.961Z,24.76
2022-10-07T11:33:05.810Z,25.32
2022-10-07T11:34:23.081Z,25.33
2022-10-07T11:35:29.926Z,25.13
2022-10-07T11:36:48.680Z,25.13
2022-10-07T11:38:14.808Z,25.39
2022-10-07T11:39:16.596Z,24.90
2022-10-07T11:40:19.669Z,25.14
2022-10-07T11:41:32.389Z,25.34
2022-10-07T11:42:43.119Z,25.34
2022-10-07T11:43:53.836Z,25.13
2022-10-07T11:45:00.319Z,25.10
2022-10-07T11:46:17.293Z,25.36
2022-10-07T11:47:24.559Z,24.96
2022-10-07T11:48:41.068Z,25.18
2022-10-07T11:49:51.698Z,25.16
2022-10-07T11:50:59.870Z,25.36
2022-10-07T11:52:12.082Z,25.27
2022-10-07T11:53:24.317Z,25.13
2022-10-07T11:54:30.705Z,25.05
2022-10-07T11:55:44.235Z,25.09
2022-10-07T11:56:51.626Z,25.17
2022-10-07T11:57:56.660Z,24.97
2022-10-07T11:59:04.897Z,25.14
2022-10-07T12:00:22.572Z,25.36
2022-10-07T12:01:30.678Z,25.37
2022-10-07T12:02:38.467Z,25.38
2022-10-07T12:03:40.466Z,25.37
2022-10-07T12:04:42.517Z,25.14
2022-10-07T12:05:50.154Z,25.34
2022-10-07T12:07:29.621Z,25.39
2022-10-07T12:08:34.604Z,25.41
2022-10-07T12:09:56.033Z,25.43
2022-10-07T12:11:12.537Z,25.44
2022-10-07T12:12:14.348Z,25.05
2022-10-07T12:13:17.352Z,25.38
2022-10-07T12:14:42.270Z,24.94
2022-10-07T12:15:45.069Z,24.62
2022-10-07T12:16:54.736Z,25.16
2022-10-07T12:18:05.678Z,25.38
2022-10-07T12:19:07.646Z,25.39
2022-10-07T12:20:51.052Z,25.46
2022-10-07T12:22:05.048Z,25.45
2022-10-07T12:23:28.609Z,25.42
2022-10-07T12:24:46.660Z,25.46
2022-10-07T12:25:52.150Z,25.20
2022-10-07T12:26:56.350Z,25.27
2022-10-07T12:27:58.486Z,25.38
2022-10-07T12:29:00.503Z,24.95
2022-10-07T12:30:02.793Z,24.70
2022-10-07T12:31:27.303Z,24.96
2022-10-07T12:32:51.210Z,25.45
2022-10-07T12:33:53.543Z,25.44
2022-10-07T12:34:55.703Z,25.07
2022-10-07T12:35:57.471Z,24.46
2022-10-07T12:37:44.465Z,25.42
2022-10-07T12:39:09.746Z,25.51
2022-10-07T12:40:20.344Z,25.36
2022-10-07T12:41:44.150Z,25.44
2022-10-07T12:43:11.063Z,25.26
2022-10-07T12:44:25.275Z,25.30
2022-10-07T12:45:28.891Z,25.31
2022-10-07T12:46:38.721Z,25.37
2022-10-07T12:47:43.038Z,25.29
2022-10-07T12:49:03.246Z,25.06
2022-10-07T12:50:13.450Z,25.06
2022-10-07T12:51:27.051Z,25.31
2022-10-07T12:52:52.102Z,25.33
2022-10-07T12:53:55.877Z,24.99
2022-10-07T12:55:02.645Z,25.44
2022-10-07T12:56:05.757Z,25.37
2022-10-07T12:57:20.000Z,25.22
2022-10-07T12:59:02.830Z,25.44
2022-10-07T13:00:08.340Z,25.10
2022-10-07T13:01:29.877Z,25.49
2022-10-07T13:03:03.469Z,25.49
2022-10-07T13:04:43.152Z,25.50
2022-10-07T13:05:58.596Z,25.17
2022-10-07T13:07:46.278Z,25.61
2022-10-07T13:09:13.819Z,25.60
2022-10-07T13:10:21.471Z,25.56
2022-10-07T13:12:01.532Z,25.46
2022-10-07T13:13:21.109Z,25.57
2022-10-07T13:14:53.384Z,25.56
2022-10-07T13:16:01.301Z,25.55
2022-10-07T13:17:30.321Z,25.55
2022-10-07T13:18:32.082Z,25.55
2022-10-07T13:19:36.622Z,25.43
2022-10-07T13:20:46.698Z,25.27
2022-10-07T13:22:13.313Z,25.51
2022-10-07T13:23:21.966Z,25.52
2022-10-07T13:24:28.463Z,25.25
2022-10-07T13:25:31.788Z,25.18
2022-10-07T13:26:33.555Z,25.48
2022-10-07T13:27:38.674Z,24.79
2022-10-07T13:28:51.739Z,25.47
2022-10-07T13:29:56.088Z,25.50
2022-10-07T13:31:12.450Z,25.42
2022-10-07T13:32:18.010Z,25.52
2022-10-07T13:33:30.362Z,25.33
2022-10-07T13:34:32.880Z,25.36
2022-10-07T13:35:39.694Z,24.86
2022-10-07T13:36:45.751Z,24.75
2022-10-07T13:37:48.207Z,25.27
2022-10-07T13:39:11.267Z,24.83
2022-10-07T13:40:28.328Z,25.43
2022-10-07T13:41:30.739Z,25.25
2022-10-07T13:42:33.239Z,25.44
2022-10-07T13:43:37.503Z,25.20
2022-10-07T13:44:43.908Z,25.23
2022-10-07T13:45:47.201Z,25.39
2022-10-07T13:46:52.153Z,25.52
2022-10-07T13:47:54.980Z,25.30
2022-10-07T13:48:57.561Z,25.43
2022-10-07T13:50:01.093Z,25.37
2022-10-07T13:51:03.105Z,25.40
2022-10-07T13:52:07.918Z,25.26
2022-10-07T13:53:26.180Z,25.32
2022-10-07T13:54:31.024Z,25.25
2022-10-07T13:55:34.922Z,25.20
2022-10-07T13:56:46.081Z,25.56
2022-10-07T13:57:48.053Z,25.38
2022-10-07T13:58:54.068Z,25.38
2022-10-07T13:59:56.635Z,25.33
2022-10-07T14:00:58.826Z,25.57
2022-10-07T14:02:01.436Z,25.08
2022-10-07T14:03:13.795Z,25.56
2022-10-07T14:04:15.520Z,25.60
2022-10-07T14:05:28.635Z,25.58
2022-10-07T14:06:56.378Z,25.64
2022-10-07T14:08:00.341Z,25.41
2022-10-07T14:09:02.231Z,25.41
2022-10-07T14:10:10.074Z,25.42
2022-10-07T14:11:21.485Z,25.01
2022-10-07T14:12:50.488Z,25.34
2022-10-07T14:13:52.646Z,24.92
2022-10-07T14:14:59.480Z,25.28
2022-10-07T14:16:01.402Z,25.29
2022-10-07T14:17:18.297Z,25.32
2022-10-07T14:18:20.117Z,25.12
2022-10-07T14:19:21.853Z,25.45
2022-10-07T14:20:36.805Z,25.34
2022-10-07T14:21:41.803Z,25.34
2022-10-07T14:22:57.384Z,25.35
2022-10-07T14:24:08.741Z,25.42
2022-10-07T14:25:27.915Z,25.59
2022-10-07T14:26:43.540Z,25.66
2022-10-07T14:28:05.642Z,25.67
2022-10-07T14:29:31.124Z,25.69
2022-10-07T14:30:57.616Z,25.26
2022-10-07T14:32:29.165Z,25.33
2022-10-07T14:34:10.303Z,25.74
2022-10-07T14:35:20.886Z,25.73
2022-10-07T14:36:23.146Z,25.68
2022-10-07T14:37:30.966Z,25.13